createdAt,value
2023-05-15T00:00:01.067Z,7.93
2023-05-15T00:02:28.509Z,8.88
2023-05-15T00:04:56.209Z,8.35
2023-05-15T00:07:23.324Z,8.98
2023-05-15T00:09:50.398Z,8.65
2023-05-15T00:12:18.061Z,8.20
2023-05-15T00:14:45.297Z,8.68
2023-05-15T00:17:12.654Z,8.35
2023-05-15T00:19:40.158Z,8.73
2023-05-15T00:22:07.359Z,8.65
2023-05-15T00:24:34.908Z,8.65
2023-05-15T00:27:02.542Z,8.82
2023-05-15T00:29:30.525Z,8.50
2023-05-15T00:31:58.145Z,8.13
2023-05-15T00:34:25.975Z,8.43
2023-05-15T00:36:52.996Z,8.57
2023-05-15T00:39:20.078Z,8.93
2023-05-15T00:41:48.632Z,8.73
2023-05-15T00:44:17.307Z,8.55
2023-05-15T00:46:46.161Z,8.65
2023-05-15T00:49:14.354Z,8.80
2023-05-15T00:51:44.641Z,7.95
2023-05-15T00:54:12.021Z,8.07
2023-05-15T00:56:39.377Z,8.23
2023-05-15T00:59:06.892Z,7.37
2023-05-15T01:01:34.637Z,7.65
2023-05-15T01:04:03.493Z,7.47
2023-05-15T01:06:31.527Z,9.30
2023-05-15T01:09:04.481Z,8.63
2023-05-15T01:11:36.408Z,9.38
2023-05-15T01:14:05.772Z,9.57
2023-05-15T01:16:33.958Z,10.05
2023-05-15T01:19:03.084Z,9.20
2023-05-15T01:21:36.423Z,10.10
2023-05-15T01:24:50.104Z,10.88
2023-05-15T01:27:28.993Z,9.75
2023-05-15T01:30:04.782Z,9.82
2023-05-15T01:32:43.856Z,9.38
2023-05-15T01:35:48.286Z,11.55
2023-05-15T01:38:33.470Z,11.23
2023-05-15T01:41:21.266Z,10.55
2023-05-15T01:43:55.636Z,9.68
2023-05-15T01:46:24.020Z,9.98
2023-05-15T01:48:52.339Z,10.50
2023-05-15T01:51:20.997Z,10.77
2023-05-15T01:53:49.319Z,11.45
2023-05-15T01:56:19.894Z,9.77
2023-05-15T01:58:47.881Z,10.55
2023-05-15T02:01:17.115Z,10.02
2023-05-15T02:03:46.298Z,10.10
2023-05-15T02:06:14.091Z,10.13
2023-05-15T02:08:42.247Z,10.27
2023-05-15T02:11:10.020Z,10.05
2023-05-15T02:13:38.527Z,10.77
2023-05-15T02:16:05.897Z,9.98
2023-05-15T02:18:33.656Z,11.20
2023-05-15T02:21:02.827Z,10.05
2023-05-15T02:23:29.965Z,10.43
2023-05-15T02:26:17.638Z,10.48
2023-05-15T02:29:00.048Z,10.30
2023-05-15T02:31:55.676Z,10.77
2023-05-15T02:34:42.208Z,10.15
2023-05-15T02:37:11.298Z,11.20
2023-05-15T02:39:38.960Z,11.63
2023-05-15T02:42:06.944Z,11.82
2023-05-15T02:44:35.957Z,11.65
2023-05-15T02:47:04.995Z,10.63
2023-05-15T02:49:33.484Z,11.75
2023-05-15T02:52:01.572Z,11.52
2023-05-15T02:54:28.845Z,11.63
2023-05-15T02:56:56.307Z,10.65
2023-05-15T02:59:23.449Z,10.60
2023-05-15T03:01:50.856Z,12.43
2023-05-15T03:04:18.025Z,11.43
2023-05-15T03:06:45.121Z,10.85
2023-05-15T03:09:12.475Z,11.68
2023-05-15T03:11:39.442Z,9.95
2023-05-15T03:14:06.446Z,10.75
2023-05-15T03:16:33.875Z,10.63
2023-05-15T03:19:00.951Z,11.12
2023-05-15T03:21:28.021Z,11.40
2023-05-15T03:23:56.284Z,9.85
2023-05-15T03:26:25.076Z,11.73
2023-05-15T03:28:52.042Z,11.40
2023-05-15T03:31:19.591Z,11.48
2023-05-15T03:33:49.920Z,10.50
2023-05-15T03:36:17.062Z,10.68
2023-05-15T03:38:44.450Z,11.77
2023-05-15T03:41:11.579Z,10.52
2023-05-15T03:43:38.607Z,11.05
2023-05-15T03:46:06.058Z,11.95
2023-05-15T03:48:33.060Z,11.25
2023-05-15T03:51:00.139Z,10.85
2023-05-15T03:53:30.953Z,12.05
2023-05-15T03:55:57.962Z,12.00
2023-05-15T03:58:26.164Z,11.32
2023-05-15T04:00:53.503Z,12.18
2023-05-15T04:03:20.963Z,12.25
2023-05-15T04:05:50.340Z,12.32
2023-05-15T04:08:17.532Z,12.00
2023-05-15T04:10:44.868Z,12.88
2023-05-15T04:13:11.898Z,12.65
2023-05-15T04:15:40.187Z,16.45
2023-05-15T04:18:07.737Z,12.70
2023-05-15T04:20:34.753Z,12.43
2023-05-15T04:23:04.029Z,13.32
2023-05-15T04:25:32.377Z,12.60
2023-05-15T04:27:59.343Z,12.68
2023-05-15T04:30:26.807Z,12.15
2023-05-15T04:32:54.465Z,11.73
2023-05-15T04:35:21.742Z,12.32
2023-05-15T04:37:48.766Z,11.88
2023-05-15T04:40:16.798Z,12.77
2023-05-15T04:42:44.093Z,13.50
2023-05-15T04:45:11.332Z,11.98
2023-05-15T04:47:38.703Z,13.50
2023-05-15T04:50:06.768Z,12.70
2023-05-15T04:52:33.927Z,11.95
2023-05-15T04:55:01.239Z,11.77
2023-05-15T04:57:28.369Z,12.25
2023-05-15T04:59:55.430Z,12.98
2023-05-15T05:02:23.502Z,13.73
2023-05-15T05:04:50.874Z,13.00
2023-05-15T05:07:17.919Z,13.05
2023-05-15T05:09:45.460Z,12.15
2023-05-15T05:12:12.589Z,13.65
2023-05-15T05:14:42.018Z,12.95
2023-05-15T05:17:09.745Z,13.65
2023-05-15T05:19:37.842Z,13.55
2023-05-15T05:22:05.461Z,12.15
2023-05-15T05:24:35.302Z,13.62
2023-05-15T05:27:02.345Z,15.18
2023-05-15T05:29:30.290Z,18.37
2023-05-15T05:31:58.240Z,12.20
2023-05-15T05:34:25.772Z,11.98
2023-05-15T05:36:52.846Z,11.57
2023-05-15T05:39:21.387Z,12.68
2023-05-15T05:41:48.445Z,13.50
2023-05-15T05:44:15.637Z,10.10
2023-05-15T05:46:42.999Z,11.10
2023-05-15T05:49:10.079Z,10.18
2023-05-15T05:51:37.168Z,10.55
2023-05-15T05:54:04.685Z,10.10
2023-05-15T05:56:31.734Z,10.32
2023-05-15T05:59:01.723Z,8.68
2023-05-15T06:01:29.215Z,9.27
2023-05-15T06:03:57.697Z,10.38
2023-05-15T06:06:24.833Z,8.88
2023-05-15T06:08:53.161Z,9.25
2023-05-15T06:11:25.108Z,8.85
2023-05-15T06:13:52.731Z,8.23
2023-05-15T06:16:20.219Z,8.75
2023-05-15T06:18:47.788Z,7.07
2023-05-15T06:21:14.919Z,7.00
2023-05-15T06:23:42.125Z,7.07
2023-05-15T06:26:09.549Z,8.27
2023-05-15T06:28:36.598Z,8.27
2023-05-15T06:31:03.958Z,7.82
2023-05-15T06:33:31.599Z,7.85
2023-05-15T06:35:58.627Z,8.32
2023-05-15T06:38:25.829Z,8.18
2023-05-15T06:40:53.201Z,7.40
2023-05-15T06:43:20.216Z,7.15
2023-05-15T06:45:47.258Z,7.15
2023-05-15T06:48:14.737Z,6.95
2023-05-15T06:50:41.852Z,7.00
2023-05-15T06:53:10.163Z,6.82
2023-05-15T06:55:38.618Z,6.40
2023-05-15T06:58:05.631Z,5.62
2023-05-15T07:00:32.718Z,5.97
2023-05-15T07:03:00.088Z,5.70
2023-05-15T07:05:27.394Z,6.12
2023-05-15T07:07:55.445Z,5.95
2023-05-15T07:10:29.117Z,5.87
2023-05-15T07:12:56.165Z,5.32
2023-05-15T07:15:23.489Z,5.97
2023-05-15T07:17:50.647Z,5.45
2023-05-15T07:20:17.810Z,5.15
2023-05-15T07:22:55.620Z,5.97
2023-05-15T07:25:24.780Z,6.10
2023-05-15T07:27:52.803Z,5.55
2023-05-15T07:30:20.222Z,5.80
2023-05-15T07:32:47.376Z,6.18
2023-05-15T07:35:15.147Z,5.72
2023-05-15T07:37:42.405Z,6.20
2023-05-15T07:40:10.182Z,5.07
2023-05-15T07:42:37.632Z,4.93
2023-05-15T07:45:05.308Z,6.15
2023-05-15T07:47:32.456Z,5.45
2023-05-15T07:49:59.911Z,5.35
2023-05-15T07:52:26.997Z,4.57
2023-05-15T07:54:54.121Z,5.22
2023-05-15T07:57:21.481Z,3.95
2023-05-15T07:59:48.552Z,4.43
2023-05-15T08:02:15.782Z,4.70
2023-05-15T08:04:43.874Z,4.07
2023-05-15T08:07:11.485Z,4.20
2023-05-15T08:09:38.754Z,4.22
2023-05-15T08:12:23.700Z,4.87
2023-05-15T08:14:52.267Z,4.18
2023-05-15T08:17:20.905Z,4.25
2023-05-15T08:19:48.756Z,4.15
2023-05-15T08:22:15.896Z,4.28
2023-05-15T08:24:43.449Z,4.28
2023-05-15T08:27:10.645Z,4.37
2023-05-15T08:29:39.682Z,4.55
2023-05-15T08:32:09.115Z,4.00
2023-05-15T08:34:36.238Z,4.25
2023-05-15T08:37:04.753Z,4.28
2023-05-15T08:39:32.122Z,3.92
2023-05-15T08:42:34.025Z,4.10
2023-05-15T08:45:02.057Z,4.07
2023-05-15T08:47:30.168Z,4.37
2023-05-15T08:50:00.693Z,3.75
2023-05-15T08:52:28.716Z,3.47
2023-05-15T08:54:56.207Z,3.22
2023-05-15T08:57:23.362Z,3.30
2023-05-15T08:59:52.825Z,3.80
2023-05-15T09:02:20.795Z,3.62
2023-05-15T09:04:47.846Z,2.28
2023-05-15T09:07:15.882Z,2.30
2023-05-15T09:09:43.571Z,2.92
2023-05-15T09:12:17.219Z,2.40
2023-05-15T09:14:45.615Z,2.20
2023-05-15T09:17:13.022Z,2.70
2023-05-15T09:19:41.775Z,2.78
2023-05-15T09:22:24.241Z,2.30
2023-05-15T09:24:53.282Z,1.98
2023-05-15T09:27:20.842Z,2.35
2023-05-15T09:29:47.853Z,2.10
2023-05-15T09:32:15.604Z,1.90
2023-05-15T09:34:44.914Z,2.03
2023-05-15T09:37:32.729Z,1.90
2023-05-15T09:40:10.915Z,1.83
2023-05-15T09:42:39.184Z,1.77
2023-05-15T09:45:07.147Z,1.50
2023-05-15T09:47:34.727Z,1.50
2023-05-15T09:50:02.174Z,1.27
2023-05-15T09:52:30.235Z,1.80
2023-05-15T09:54:58.001Z,1.50
2023-05-15T09:57:25.219Z,1.60
2023-05-15T09:59:52.548Z,1.25
2023-05-15T10:02:34.611Z,1.80
2023-05-15T10:05:02.981Z,1.45
2023-05-15T10:07:31.709Z,1.70
2023-05-15T10:09:59.565Z,1.37
2023-05-15T10:12:28.108Z,1.70
2023-05-15T10:14:58.384Z,2.17
2023-05-15T10:17:29.380Z,2.58
2023-05-15T10:19:59.217Z,2.10
2023-05-15T10:22:29.702Z,2.00
2023-05-15T10:25:03.847Z,2.03
2023-05-15T10:27:32.432Z,1.98
2023-05-15T10:30:00.320Z,2.45
2023-05-15T10:32:27.740Z,1.75
2023-05-15T10:34:56.236Z,1.80
2023-05-15T10:37:23.966Z,1.85
2023-05-15T10:39:53.251Z,2.00
2023-05-15T10:42:21.044Z,1.65
2023-05-15T10:44:48.982Z,2.60
2023-05-15T10:47:16.166Z,1.90
2023-05-15T10:49:43.493Z,2.50
2023-05-15T10:52:10.967Z,2.03
2023-05-15T10:54:38.093Z,2.50
2023-05-15T10:57:06.853Z,2.08
2023-05-15T10:59:35.101Z,2.20
2023-05-15T11:02:25.878Z,1.80
2023-05-15T11:05:02.651Z,2.28
2023-05-15T11:07:30.039Z,3.15
2023-05-15T11:09:57.450Z,3.17
2023-05-15T11:12:24.979Z,2.85
2023-05-15T11:14:51.878Z,2.85
2023-05-15T11:17:19.293Z,2.40
2023-05-15T11:19:49.064Z,2.60
2023-05-15T11:22:21.788Z,2.05
2023-05-15T11:24:51.139Z,1.87
2023-05-15T11:27:23.754Z,2.30
2023-05-15T11:30:22.529Z,1.93
2023-05-15T11:32:55.860Z,1.70
2023-05-15T11:35:43.188Z,1.70
2023-05-15T11:38:10.753Z,1.85
2023-05-15T11:40:50.449Z,1.40
2023-05-15T11:43:20.940Z,1.70
2023-05-15T11:45:53.182Z,1.75
2023-05-15T11:48:20.808Z,1.37
2023-05-15T11:50:47.980Z,1.45
2023-05-15T11:53:16.549Z,1.52
2023-05-15T11:55:44.656Z,1.52
2023-05-15T11:58:14.680Z,1.50
2023-05-15T12:00:43.331Z,1.80
2023-05-15T12:03:16.085Z,1.50
2023-05-15T12:05:56.962Z,1.12
2023-05-15T12:08:27.238Z,1.50
2023-05-15T12:10:54.700Z,1.10
2023-05-15T12:13:21.896Z,1.30
2023-05-15T12:15:49.282Z,1.40
2023-05-15T12:18:16.408Z,1.30
2023-05-15T12:20:46.863Z,1.10
2023-05-15T12:23:17.947Z,1.75
2023-05-15T12:25:46.573Z,1.10
2023-05-15T12:28:14.797Z,1.10
2023-05-15T12:30:43.079Z,1.05
2023-05-15T12:33:11.028Z,1.05
2023-05-15T12:35:43.887Z,0.75
2023-05-15T12:38:18.196Z,1.08
2023-05-15T12:40:46.673Z,0.90
2023-05-15T12:43:14.169Z,0.90
2023-05-15T12:45:42.250Z,0.80
2023-05-15T12:48:14.589Z,0.98
2023-05-15T12:50:44.667Z,1.00
2023-05-15T12:53:15.622Z,0.60
2023-05-15T12:55:44.800Z,1.10
2023-05-15T12:58:13.270Z,0.85
2023-05-15T13:00:46.147Z,0.80
2023-05-15T13:03:14.493Z,0.80
2023-05-15T13:05:45.599Z,0.70
2023-05-15T13:08:18.202Z,0.68
2023-05-15T13:10:46.773Z,0.83
2023-05-15T13:13:14.101Z,0.77
2023-05-15T13:15:43.829Z,0.98
2023-05-15T13:18:12.329Z,0.77
2023-05-15T13:20:51.681Z,0.55
2023-05-15T13:23:20.706Z,1.12
2023-05-15T13:25:47.914Z,0.70
2023-05-15T13:28:15.683Z,0.70
2023-05-15T13:30:43.134Z,0.80
2023-05-15T13:33:11.890Z,0.80
2023-05-15T13:35:39.805Z,0.80
2023-05-15T13:38:10.429Z,0.90
2023-05-15T13:40:38.952Z,0.70
2023-05-15T13:43:06.768Z,0.90
2023-05-15T13:45:34.188Z,0.80
2023-05-15T13:48:01.525Z,0.95
2023-05-15T13:50:28.931Z,0.95
2023-05-15T13:52:56.389Z,0.90
2023-05-15T13:55:23.950Z,0.90
2023-05-15T13:57:52.267Z,1.00
2023-05-15T14:00:20.246Z,0.82
2023-05-15T14:02:47.851Z,0.70
2023-05-15T14:05:15.774Z,0.85
2023-05-15T14:07:43.018Z,0.70
2023-05-15T14:10:11.230Z,0.80
2023-05-15T14:12:38.491Z,0.70
2023-05-15T14:15:06.479Z,0.60
2023-05-15T14:17:35.090Z,0.90
2023-05-15T14:20:02.467Z,0.90
2023-05-15T14:22:29.442Z,0.82
2023-05-15T14:24:56.786Z,1.05
2023-05-15T14:27:26.096Z,1.10
2023-05-15T14:29:53.085Z,1.05
2023-05-15T14:32:21.560Z,0.80
2023-05-15T14:34:48.625Z,0.95
2023-05-15T14:37:15.998Z,1.00
2023-05-15T14:39:43.279Z,0.82
2023-05-15T14:42:10.742Z,1.02
2023-05-15T14:44:37.799Z,0.80
2023-05-15T14:47:10.760Z,0.85
2023-05-15T14:49:38.008Z,1.25
2023-05-15T14:52:08.044Z,0.70
2023-05-15T14:54:35.928Z,0.93
2023-05-15T14:57:03.907Z,0.90
2023-05-15T14:59:31.791Z,1.23
2023-05-15T15:01:58.923Z,0.80
2023-05-15T15:04:30.613Z,0.60
2023-05-15T15:06:58.601Z,0.82
2023-05-15T15:09:28.377Z,0.90
2023-05-15T15:11:56.069Z,0.90
2023-05-15T15:14:23.353Z,0.82
2023-05-15T15:16:50.405Z,1.05
2023-05-15T15:19:19.952Z,0.93
2023-05-15T15:21:48.026Z,0.90
2023-05-15T15:24:16.012Z,0.95
2023-05-15T15:26:43.365Z,1.17
2023-05-15T15:29:10.678Z,1.02
2023-05-15T15:31:37.783Z,1.33
2023-05-15T15:34:05.723Z,1.20
2023-05-15T15:36:33.296Z,1.30
2023-05-15T15:39:00.383Z,1.23
2023-05-15T15:41:30.293Z,1.15
2023-05-15T15:43:57.553Z,1.50
2023-05-15T15:46:24.700Z,1.33
2023-05-15T15:48:51.772Z,1.60
2023-05-15T15:51:19.897Z,1.10
2023-05-15T15:53:46.951Z,1.37
2023-05-15T15:56:13.963Z,1.40
2023-05-15T15:58:41.344Z,1.40
2023-05-15T16:01:08.448Z,1.50
2023-05-15T16:03:36.320Z,1.50
2023-05-15T16:06:03.521Z,1.30
2023-05-15T16:08:30.892Z,1.50
2023-05-15T16:10:58.180Z,2.60
2023-05-15T16:13:25.577Z,3.97
2023-05-15T16:15:52.576Z,2.50
2023-05-15T16:18:20.698Z,1.65
2023-05-15T16:20:49.520Z,1.60
2023-05-15T16:23:16.877Z,1.45
2023-05-15T16:25:44.755Z,0.90
2023-05-15T16:28:12.167Z,1.75
2023-05-15T16:30:48.720Z,1.60
2023-05-15T16:33:20.363Z,1.15
2023-05-15T16:35:47.590Z,1.17
2023-05-15T16:38:14.804Z,1.00
2023-05-15T16:40:42.120Z,1.67
2023-05-15T16:43:09.235Z,1.55
2023-05-15T16:45:36.303Z,1.00
2023-05-15T16:48:03.889Z,0.82
2023-05-15T16:50:31.964Z,0.80
2023-05-15T16:52:59.247Z,0.80
2023-05-15T16:55:26.925Z,0.70
2023-05-15T16:57:54.165Z,0.60
2023-05-15T17:00:21.389Z,0.70
2023-05-15T17:02:50.769Z,0.50
2023-05-15T17:05:17.974Z,0.70
2023-05-15T17:07:45.190Z,0.60
2023-05-15T17:10:12.867Z,0.65
2023-05-15T17:12:40.121Z,0.80
2023-05-15T17:15:07.659Z,1.08
2023-05-15T17:17:35.032Z,1.05
2023-05-15T17:20:03.537Z,0.57
2023-05-15T17:22:30.853Z,0.60
2023-05-15T17:24:58.568Z,0.82
2023-05-15T17:27:25.646Z,0.60
2023-05-15T17:29:52.711Z,0.30
2023-05-15T17:32:20.439Z,0.50
2023-05-15T17:34:47.580Z,0.50
2023-05-15T17:37:14.741Z,0.50
2023-05-15T17:39:42.615Z,0.50
2023-05-15T17:42:09.678Z,0.50
2023-05-15T17:44:36.677Z,0.43
2023-05-15T17:47:04.089Z,0.40
2023-05-15T17:49:31.097Z,0.68
2023-05-15T17:51:58.203Z,0.98
2023-05-15T17:54:25.711Z,0.90
2023-05-15T17:56:52.819Z,1.05
2023-05-15T17:59:19.882Z,0.47
2023-05-15T18:01:47.336Z,0.52
2023-05-15T18:04:15.241Z,0.60
2023-05-15T18:06:42.669Z,0.60
2023-05-15T18:09:10.317Z,0.90
2023-05-15T18:11:37.904Z,0.93
2023-05-15T18:14:05.031Z,0.73
2023-05-15T18:16:32.845Z,0.70
2023-05-15T18:19:00.427Z,0.65
2023-05-15T18:21:28.822Z,0.62
2023-05-15T18:23:56.055Z,0.50
2023-05-15T18:26:23.803Z,1.15
2023-05-15T18:28:50.978Z,0.70
2023-05-15T18:31:18.174Z,0.70
2023-05-15T18:33:45.770Z,0.70
2023-05-15T18:36:12.844Z,0.70
2023-05-15T18:38:39.897Z,0.47
2023-05-15T18:41:07.304Z,0.95
2023-05-15T18:43:34.758Z,0.75
2023-05-15T18:46:02.078Z,0.90
2023-05-15T18:48:29.457Z,0.80
2023-05-15T18:50:56.515Z,0.93
2023-05-15T18:53:23.643Z,0.80
2023-05-15T18:55:51.176Z,1.58
2023-05-15T18:58:19.280Z,1.37
2023-05-15T19:00:46.402Z,1.30
2023-05-15T19:03:13.824Z,1.05
2023-05-15T19:05:41.029Z,1.30
2023-05-15T19:08:08.152Z,0.90
2023-05-15T19:10:35.543Z,0.85
2023-05-15T19:13:02.691Z,1.10
2023-05-15T19:15:29.800Z,1.75
2023-05-15T19:18:00.323Z,2.53
2023-05-15T19:20:27.601Z,3.17
2023-05-15T19:22:54.901Z,16.42
2023-05-15T19:25:22.651Z,6.37
2023-05-15T19:27:49.922Z,2.45
2023-05-15T19:30:16.991Z,1.33
2023-05-15T19:32:44.490Z,1.20
2023-05-15T19:35:11.839Z,1.00
2023-05-15T19:37:38.935Z,0.82
2023-05-15T19:40:07.140Z,0.68
2023-05-15T19:42:34.240Z,0.90
2023-05-15T19:45:01.294Z,0.80
2023-05-15T19:47:28.724Z,0.90
2023-05-15T19:49:55.947Z,0.80
2023-05-15T19:52:23.074Z,0.85
2023-05-15T19:54:50.453Z,1.10
2023-05-15T19:57:17.547Z,0.88
2023-05-15T19:59:44.575Z,1.10
2023-05-15T20:02:12.089Z,1.33
2023-05-15T20:04:39.504Z,1.50
2023-05-15T20:07:06.579Z,1.00
2023-05-15T20:09:34.991Z,1.25
2023-05-15T20:12:03.318Z,0.90
2023-05-15T20:14:32.103Z,1.00
2023-05-15T20:16:59.130Z,1.08
2023-05-15T20:19:27.879Z,1.00
2023-05-15T20:21:54.919Z,0.90
2023-05-15T20:24:25.822Z,0.90
2023-05-15T20:26:53.896Z,0.80
2023-05-15T20:29:20.905Z,1.12
2023-05-15T20:31:49.093Z,1.30
2023-05-15T20:34:18.589Z,1.40
2023-05-15T20:36:45.560Z,1.48
2023-05-15T20:39:12.524Z,1.02
2023-05-15T20:41:40.008Z,1.15
2023-05-15T20:44:07.023Z,1.08
2023-05-15T20:46:34.050Z,1.17
2023-05-15T20:49:01.326Z,1.23
2023-05-15T20:51:28.675Z,1.70
2023-05-15T20:53:56.204Z,1.00
2023-05-15T20:56:23.754Z,0.80
2023-05-15T20:58:50.952Z,0.90
2023-05-15T21:01:18.029Z,0.90
2023-05-15T21:03:45.535Z,0.93
2023-05-15T21:06:14.011Z,0.90
2023-05-15T21:08:41.298Z,0.90
2023-05-15T21:11:08.549Z,0.93
2023-05-15T21:13:35.539Z,0.90
2023-05-15T21:16:02.507Z,1.05
2023-05-15T21:18:29.813Z,1.35
2023-05-15T21:20:56.811Z,1.17
2023-05-15T21:23:23.987Z,1.12
2023-05-15T21:25:51.297Z,0.77
2023-05-15T21:28:18.379Z,1.00
2023-05-15T21:30:45.518Z,1.00
2023-05-15T21:33:12.794Z,1.00
2023-05-15T21:35:39.889Z,0.90
2023-05-15T21:38:07.069Z,1.00
2023-05-15T21:40:34.571Z,1.10
2023-05-15T21:43:01.586Z,1.02
2023-05-15T21:45:29.743Z,0.95
2023-05-15T21:47:57.073Z,1.10
2023-05-15T21:50:25.849Z,1.17
2023-05-15T21:52:53.146Z,0.93
2023-05-15T21:55:20.459Z,1.02
2023-05-15T21:57:47.455Z,1.02
2023-05-15T22:00:14.644Z,1.20
2023-05-15T22:02:42.037Z,0.95
2023-05-15T22:05:09.248Z,1.35
2023-05-15T22:07:36.260Z,0.90
2023-05-15T22:10:04.592Z,1.15
2023-05-15T22:12:49.790Z,1.20
2023-05-15T22:15:17.086Z,1.10
2023-05-15T22:17:44.185Z,1.10
2023-05-15T22:20:13.096Z,1.27
2023-05-15T22:22:42.148Z,1.10
2023-05-15T22:25:09.361Z,1.10
2023-05-15T22:27:36.382Z,1.35
2023-05-15T22:30:04.570Z,1.00
2023-05-15T22:32:32.503Z,1.08
2023-05-15T22:34:59.691Z,1.30
2023-05-15T22:37:26.934Z,1.40
2023-05-15T22:39:54.059Z,1.30
2023-05-15T22:42:21.068Z,1.40
2023-05-15T22:44:48.622Z,1.17
2023-05-15T22:47:15.780Z,1.42
2023-05-15T22:49:42.769Z,1.00
2023-05-15T22:52:12.126Z,1.05
2023-05-15T22:55:17.747Z,1.37
2023-05-15T22:57:45.116Z,1.20
2023-05-15T23:00:13.767Z,1.27
2023-05-15T23:02:43.494Z,1.40
2023-05-15T23:05:12.130Z,1.40
2023-05-15T23:08:26.689Z,1.37
2023-05-15T23:10:56.052Z,1.23
2023-05-15T23:13:23.618Z,1.45
2023-05-15T23:15:51.136Z,1.30
2023-05-15T23:18:19.565Z,1.62
2023-05-15T23:20:46.710Z,1.65
2023-05-15T23:23:13.784Z,1.60
2023-05-15T23:25:41.070Z,1.70
2023-05-15T23:28:08.056Z,1.52
2023-05-15T23:30:35.018Z,1.50
2023-05-15T23:33:02.442Z,1.55
2023-05-15T23:35:29.513Z,1.40
2023-05-15T23:37:56.511Z,1.30
2023-05-15T23:40:23.903Z,1.50
2023-05-15T23:42:51.035Z,1.30
2023-05-15T23:45:18.066Z,1.30
2023-05-15T23:47:46.678Z,1.23
2023-05-15T23:50:13.758Z,1.00
2023-05-15T23:52:40.886Z,1.20
2023-05-15T23:55:08.427Z,1.10
2023-05-15T23:57:35.503Z,1.23
